createdAt,value
2023-03-14T00:01:25.736Z,4.91
2023-03-14T00:03:53.295Z,5.00
2023-03-14T00:06:20.971Z,5.04
2023-03-14T00:08:48.682Z,5.08
2023-03-14T00:11:19.864Z,5.15
2023-03-14T00:13:53.697Z,4.97
2023-03-14T00:16:21.159Z,4.98
2023-03-14T00:18:48.703Z,5.10
2023-03-14T00:21:16.085Z,4.68
2023-03-14T00:23:44.040Z,4.68
2023-03-14T00:26:14.621Z,4.50
2023-03-14T00:28:43.128Z,4.36
2023-03-14T00:31:13.206Z,4.12
2023-03-14T00:33:42.335Z,4.24
2023-03-14T00:36:12.785Z,4.32
2023-03-14T00:38:41.473Z,4.46
2023-03-14T00:41:14.275Z,4.35
2023-03-14T00:43:42.320Z,4.51
2023-03-14T00:46:10.032Z,4.42
2023-03-14T00:48:37.420Z,4.36
2023-03-14T00:51:06.328Z,4.57
2023-03-14T00:53:37.464Z,4.21
2023-03-14T00:56:06.429Z,4.27
2023-03-14T00:58:33.658Z,4.21
2023-03-14T01:01:00.719Z,4.29
2023-03-14T01:03:28.185Z,4.28
2023-03-14T01:05:55.174Z,4.55
2023-03-14T01:08:22.204Z,4.38
2023-03-14T01:10:49.421Z,4.18
2023-03-14T01:13:16.389Z,4.02
2023-03-14T01:15:43.449Z,3.84
2023-03-14T01:18:11.877Z,3.69
2023-03-14T01:20:38.883Z,3.37
2023-03-14T01:23:05.871Z,3.40
2023-03-14T01:25:33.142Z,3.28
2023-03-14T01:28:01.926Z,3.05
2023-03-14T01:30:29.594Z,3.24
2023-03-14T01:32:56.722Z,2.92
2023-03-14T01:35:23.725Z,2.55
2023-03-14T01:37:51.304Z,2.53
2023-03-14T01:40:22.740Z,2.34
2023-03-14T01:43:07.713Z,2.25
2023-03-14T01:45:59.839Z,2.26
2023-03-14T01:48:32.338Z,2.23
2023-03-14T01:51:02.507Z,2.28
2023-03-14T01:53:30.926Z,2.37
2023-03-14T01:55:58.848Z,2.57
2023-03-14T01:58:29.024Z,2.58
2023-03-14T02:00:59.273Z,2.61
2023-03-14T02:03:28.575Z,2.41
2023-03-14T02:05:58.044Z,2.38
2023-03-14T02:08:25.770Z,2.33
2023-03-14T02:10:57.953Z,2.44
2023-03-14T02:13:45.484Z,2.42
2023-03-14T02:16:26.094Z,2.48
2023-03-14T02:19:15.492Z,2.42
2023-03-14T02:22:15.514Z,2.30
2023-03-14T02:25:05.443Z,2.30
2023-03-14T02:27:33.025Z,2.42
2023-03-14T02:30:05.938Z,2.46
2023-03-14T02:32:36.066Z,2.36
2023-03-14T02:35:10.943Z,2.52
2023-03-14T02:37:47.545Z,2.57
2023-03-14T02:40:14.966Z,2.68
2023-03-14T02:42:43.388Z,2.66
2023-03-14T02:45:10.337Z,2.61
2023-03-14T02:47:48.349Z,2.52
2023-03-14T02:50:20.796Z,2.62
2023-03-14T02:52:47.978Z,2.67
2023-03-14T02:55:15.094Z,2.61
2023-03-14T02:57:45.268Z,2.47
2023-03-14T03:00:12.787Z,2.37
2023-03-14T03:02:40.872Z,2.14
2023-03-14T03:05:08.210Z,2.18
2023-03-14T03:07:35.565Z,2.18
2023-03-14T03:10:02.621Z,2.34
2023-03-14T03:12:29.965Z,2.23
2023-03-14T03:14:56.963Z,2.13
2023-03-14T03:17:24.201Z,2.14
2023-03-14T03:19:51.183Z,2.23
2023-03-14T03:22:18.233Z,2.28
2023-03-14T03:24:45.729Z,2.13
2023-03-14T03:27:12.728Z,2.22
2023-03-14T03:29:40.244Z,2.14
2023-03-14T03:32:07.199Z,2.31
2023-03-14T03:34:34.839Z,2.46
2023-03-14T03:37:02.231Z,2.40
2023-03-14T03:39:32.213Z,2.23
2023-03-14T03:41:59.163Z,2.24
2023-03-14T03:44:27.146Z,2.54
2023-03-14T03:46:54.172Z,2.65
2023-03-14T03:49:21.399Z,2.42
2023-03-14T03:51:49.186Z,2.58
2023-03-14T03:54:16.518Z,2.75
2023-03-14T03:56:43.477Z,2.75
2023-03-14T03:59:10.944Z,2.82
2023-03-14T04:01:38.258Z,2.89
2023-03-14T04:04:06.090Z,2.82
2023-03-14T04:06:33.853Z,2.81
2023-03-14T04:09:01.750Z,2.73
2023-03-14T04:11:51.067Z,2.55
2023-03-14T04:14:20.916Z,2.44
2023-03-14T04:16:49.923Z,2.69
2023-03-14T04:19:19.812Z,2.67
2023-03-14T04:21:48.172Z,2.47
2023-03-14T04:24:15.690Z,2.71
2023-03-14T04:26:45.871Z,2.65
2023-03-14T04:29:13.570Z,2.69
2023-03-14T04:31:42.568Z,2.62
2023-03-14T04:34:10.282Z,2.43
2023-03-14T04:36:43.137Z,2.54
2023-03-14T04:39:15.681Z,2.71
2023-03-14T04:41:50.320Z,2.72
2023-03-14T04:44:17.404Z,2.60
2023-03-14T04:46:45.342Z,2.78
2023-03-14T04:49:13.521Z,2.72
2023-03-14T04:51:41.270Z,2.73
2023-03-14T04:54:09.253Z,2.61
2023-03-14T04:56:38.176Z,2.75
2023-03-14T04:59:05.857Z,2.75
2023-03-14T05:01:37.168Z,2.79
2023-03-14T05:04:24.661Z,2.83
2023-03-14T05:07:10.945Z,2.88
2023-03-14T05:09:57.753Z,2.88
2023-03-14T05:12:55.582Z,2.96
2023-03-14T05:15:41.778Z,3.09
2023-03-14T05:18:15.399Z,2.96
2023-03-14T05:21:26.245Z,3.09
2023-03-14T05:24:16.275Z,3.15
2023-03-14T05:26:55.423Z,3.36
2023-03-14T05:29:40.246Z,3.52
2023-03-14T05:32:26.239Z,3.63
2023-03-14T05:35:00.553Z,3.52
2023-03-14T05:37:35.891Z,3.39
2023-03-14T05:40:25.954Z,3.48
2023-03-14T05:43:03.121Z,3.39
2023-03-14T05:45:43.693Z,3.40
2023-03-14T05:48:29.107Z,3.39
2023-03-14T05:51:14.259Z,3.35
2023-03-14T05:54:07.246Z,3.45
2023-03-14T05:56:43.159Z,3.55
2023-03-14T05:59:28.592Z,3.80
2023-03-14T06:02:15.686Z,4.02
2023-03-14T06:04:54.038Z,3.97
2023-03-14T06:07:21.200Z,4.13
2023-03-14T06:09:48.486Z,4.35
2023-03-14T06:12:18.588Z,4.23
2023-03-14T06:14:46.844Z,4.41
2023-03-14T06:17:14.657Z,4.35
2023-03-14T06:19:59.149Z,4.41
2023-03-14T06:22:26.328Z,4.46
2023-03-14T06:24:54.223Z,4.69
2023-03-14T06:27:22.681Z,4.63
2023-03-14T06:29:53.709Z,4.27
2023-03-14T06:32:21.797Z,4.60
2023-03-14T06:34:52.155Z,4.02
2023-03-14T06:37:22.099Z,4.23
2023-03-14T06:39:49.846Z,4.20
2023-03-14T06:42:30.884Z,4.09
2023-03-14T06:44:58.456Z,4.35
2023-03-14T06:47:26.562Z,4.40
2023-03-14T06:49:53.976Z,4.94
2023-03-14T06:52:21.114Z,5.32
2023-03-14T06:54:48.780Z,5.61
2023-03-14T06:57:16.385Z,5.66
2023-03-14T06:59:43.665Z,5.86
2023-03-14T07:02:13.887Z,6.12
2023-03-14T07:04:43.229Z,6.37
2023-03-14T07:07:10.877Z,6.47
2023-03-14T07:09:38.331Z,6.70
2023-03-14T07:12:06.134Z,6.99
2023-03-14T07:14:33.723Z,7.27
2023-03-14T07:17:01.269Z,7.37
2023-03-14T07:19:28.729Z,7.28
2023-03-14T07:21:55.758Z,7.26
2023-03-14T07:24:25.704Z,7.09
2023-03-14T07:29:39.776Z,7.33
2023-03-14T07:32:06.871Z,7.29
2023-03-14T07:34:34.110Z,7.39
2023-03-14T07:37:01.384Z,7.53
2023-03-14T07:39:28.454Z,7.72
2023-03-14T07:42:02.242Z,8.21
2023-03-14T07:44:49.528Z,8.64
2023-03-14T07:47:16.547Z,8.72
2023-03-14T07:49:43.569Z,8.90
2023-03-14T07:52:10.503Z,8.82
2023-03-14T07:54:37.590Z,8.75
2023-03-14T07:57:05.130Z,8.92
2023-03-14T07:59:32.267Z,8.79
2023-03-14T08:02:00.106Z,8.88
2023-03-14T08:04:28.424Z,9.47
2023-03-14T08:06:55.695Z,9.29
2023-03-14T08:09:22.796Z,9.30
2023-03-14T08:11:49.774Z,9.00
2023-03-14T08:14:16.819Z,8.80
2023-03-14T08:16:43.931Z,9.02
2023-03-14T08:19:10.958Z,8.77
2023-03-14T08:21:38.126Z,8.73
2023-03-14T08:24:05.305Z,8.92
2023-03-14T08:26:32.292Z,9.79
2023-03-14T08:28:59.363Z,10.09
2023-03-14T08:31:26.713Z,10.74
2023-03-14T08:33:54.416Z,11.23
2023-03-14T08:36:23.810Z,11.43
2023-03-14T08:38:51.336Z,11.70
2023-03-14T08:41:18.398Z,11.99
2023-03-14T08:43:45.454Z,11.29
2023-03-14T08:46:13.117Z,11.31
2023-03-14T08:48:40.393Z,10.07
2023-03-14T08:51:13.962Z,9.80
2023-03-14T08:53:41.642Z,10.16
2023-03-14T08:56:11.108Z,10.51
2023-03-14T08:58:39.231Z,10.83
2023-03-14T09:01:11.269Z,10.97
2023-03-14T09:03:39.509Z,10.82
2023-03-14T09:06:08.943Z,10.37
2023-03-14T09:08:39.311Z,11.06
2023-03-14T09:11:09.853Z,11.36
2023-03-14T09:13:37.718Z,11.86
2023-03-14T09:16:05.077Z,11.82
2023-03-14T09:18:32.803Z,11.80
2023-03-14T09:20:59.763Z,12.11
2023-03-14T09:23:26.878Z,12.15
2023-03-14T09:25:58.727Z,12.89
2023-03-14T09:28:26.850Z,12.68
2023-03-14T09:30:53.939Z,12.53
2023-03-14T09:33:21.806Z,12.16
2023-03-14T09:35:48.860Z,11.96
2023-03-14T09:38:18.191Z,12.23
2023-03-14T09:40:45.275Z,11.47
2023-03-14T09:43:15.484Z,11.60
2023-03-14T09:45:45.472Z,12.02
2023-03-14T09:48:18.668Z,12.54
2023-03-14T09:50:51.056Z,12.87
2023-03-14T09:53:21.542Z,13.40
2023-03-14T09:55:51.306Z,12.97
2023-03-14T09:58:21.214Z,13.06
2023-03-14T10:00:48.644Z,13.58
2023-03-14T10:03:15.893Z,14.00
2023-03-14T10:05:43.661Z,14.55
2023-03-14T10:08:15.039Z,14.55
2023-03-14T10:10:43.408Z,14.38
2023-03-14T10:13:16.267Z,13.61
2023-03-14T10:15:47.885Z,13.37
2023-03-14T10:18:16.120Z,13.18
2023-03-14T10:20:46.177Z,13.68
2023-03-14T10:23:13.134Z,13.68
2023-03-14T10:25:43.073Z,13.94
2023-03-14T10:28:26.574Z,15.21
2023-03-14T10:30:53.871Z,15.89
2023-03-14T10:33:36.097Z,15.89
2023-03-14T10:36:16.948Z,15.56
2023-03-14T10:38:44.690Z,15.81
2023-03-14T10:41:25.270Z,15.72
2023-03-14T10:43:57.740Z,15.52
2023-03-14T10:46:27.942Z,15.20
2023-03-14T10:49:29.224Z,15.12
2023-03-14T10:52:02.242Z,14.84
2023-03-14T10:54:31.458Z,14.43
2023-03-14T10:57:03.239Z,13.92
2023-03-14T10:59:37.061Z,14.90
2023-03-14T11:02:16.185Z,14.63
2023-03-14T11:05:05.747Z,15.14
2023-03-14T11:07:40.139Z,15.60
2023-03-14T11:10:16.800Z,16.32
2023-03-14T11:12:52.913Z,16.61
2023-03-14T11:15:40.082Z,17.05
2023-03-14T11:18:47.925Z,16.84
2023-03-14T11:21:23.761Z,16.90
2023-03-14T11:24:15.388Z,17.33
2023-03-14T11:26:54.481Z,18.14
2023-03-14T11:29:48.144Z,18.37
2023-03-14T11:32:26.386Z,18.33
2023-03-14T11:34:55.482Z,18.03
2023-03-14T11:37:34.585Z,18.14
2023-03-14T11:40:07.793Z,18.00
2023-03-14T11:42:35.059Z,16.93
2023-03-14T11:45:03.813Z,17.45
2023-03-14T11:47:41.903Z,17.47
2023-03-14T11:50:27.642Z,18.40
2023-03-14T11:52:59.726Z,18.89
2023-03-14T11:55:29.349Z,19.92
2023-03-14T11:58:01.333Z,20.58
2023-03-14T12:00:29.918Z,20.59
2023-03-14T12:03:15.817Z,20.79
2023-03-14T12:05:57.363Z,20.32
2023-03-14T12:08:43.487Z,21.07
2023-03-14T12:11:25.630Z,20.87
2023-03-14T12:13:54.549Z,21.26
2023-03-14T12:16:42.220Z,20.54
2023-03-14T12:19:24.215Z,19.96
2023-03-14T12:21:54.601Z,20.34
2023-03-14T12:24:27.767Z,20.89
2023-03-14T12:27:00.914Z,21.39
2023-03-14T12:29:29.571Z,21.23
2023-03-14T12:32:02.256Z,21.44
2023-03-14T12:34:32.903Z,21.98
2023-03-14T12:37:21.127Z,21.65
2023-03-14T12:40:11.198Z,22.23
2023-03-14T12:42:45.284Z,21.66
2023-03-14T12:45:44.794Z,22.42
2023-03-14T12:48:27.432Z,22.00
2023-03-14T12:50:58.289Z,22.05
2023-03-14T12:53:46.883Z,21.89
2023-03-14T12:56:29.565Z,21.77
2023-03-14T12:59:21.005Z,22.19
2023-03-14T13:01:56.868Z,21.79
2023-03-14T13:04:39.041Z,22.32
2023-03-14T13:07:14.380Z,22.06
2023-03-14T13:10:03.529Z,20.25
2023-03-14T13:12:39.684Z,21.33
2023-03-14T13:15:30.555Z,19.63
2023-03-14T13:18:03.935Z,20.44
2023-03-14T13:20:38.757Z,20.99
2023-03-14T13:23:06.397Z,21.60
2023-03-14T13:25:35.584Z,22.92
2023-03-14T13:28:04.327Z,23.41
2023-03-14T13:30:42.202Z,24.30
2023-03-14T13:33:18.155Z,24.21
2023-03-14T13:35:49.338Z,25.19
2023-03-14T13:38:23.994Z,25.15
2023-03-14T13:40:55.737Z,24.77
2023-03-14T13:43:44.985Z,24.37
2023-03-14T13:46:24.843Z,24.80
2023-03-14T13:48:55.872Z,25.40
2023-03-14T13:51:24.002Z,25.98
2023-03-14T13:53:56.668Z,25.86
2023-03-14T13:56:27.600Z,24.89
2023-03-14T13:58:54.682Z,25.74
2023-03-14T14:01:35.679Z,25.06
2023-03-14T14:04:10.054Z,24.10
2023-03-14T14:06:40.805Z,24.38
2023-03-14T14:09:30.321Z,24.61
2023-03-14T14:12:15.547Z,24.89
2023-03-14T14:14:56.678Z,23.88
2023-03-14T14:17:46.154Z,23.09
2023-03-14T14:20:32.996Z,23.12
2023-03-14T14:23:05.628Z,20.66
2023-03-14T14:25:34.143Z,19.47
2023-03-14T14:28:22.607Z,21.29
2023-03-14T14:31:21.146Z,22.48
2023-03-14T14:33:51.922Z,22.87
2023-03-14T14:36:38.898Z,23.84
2023-03-14T14:39:30.195Z,25.05
2023-03-14T14:41:57.517Z,26.05
2023-03-14T14:44:48.134Z,27.10
2023-03-14T14:47:17.460Z,27.84
2023-03-14T14:49:44.484Z,28.28
2023-03-14T14:52:16.144Z,28.47
2023-03-14T14:54:51.919Z,28.87
2023-03-14T14:57:39.261Z,28.23
2023-03-14T15:00:14.795Z,26.87
2023-03-14T15:02:48.155Z,26.92
2023-03-14T15:05:18.310Z,26.73
2023-03-14T15:07:46.800Z,26.34
2023-03-14T15:10:19.025Z,26.34
2023-03-14T15:12:48.777Z,26.13
2023-03-14T15:15:16.929Z,25.40
2023-03-14T15:17:44.173Z,24.28
2023-03-14T15:20:14.501Z,23.20
2023-03-14T15:22:42.749Z,23.46
2023-03-14T15:25:18.587Z,22.82
2023-03-14T15:27:53.976Z,22.84
2023-03-14T15:30:21.182Z,23.18
2023-03-14T15:32:48.587Z,23.07
2023-03-14T15:35:17.795Z,22.46
2023-03-14T15:37:45.963Z,22.00
2023-03-14T15:40:15.397Z,22.08
2023-03-14T15:42:42.923Z,21.80
2023-03-14T15:45:10.414Z,21.02
2023-03-14T15:47:37.634Z,20.96
2023-03-14T15:50:05.624Z,21.03
2023-03-14T15:52:32.838Z,20.65
2023-03-14T15:54:59.820Z,20.33
2023-03-14T15:57:26.895Z,19.91
2023-03-14T15:59:54.129Z,19.72
2023-03-14T16:02:21.164Z,20.26
2023-03-14T16:04:48.187Z,19.92
2023-03-14T16:07:15.834Z,19.95
2023-03-14T16:09:43.159Z,19.11
2023-03-14T16:12:10.519Z,19.56
2023-03-14T16:14:37.589Z,18.97
2023-03-14T16:17:12.242Z,19.17
2023-03-14T16:19:39.423Z,19.27
2023-03-14T16:22:06.536Z,18.79
2023-03-14T16:24:34.234Z,18.69
2023-03-14T16:27:01.209Z,18.64
2023-03-14T16:29:28.452Z,18.44
2023-03-14T16:31:56.241Z,18.34
2023-03-14T16:34:23.505Z,18.21
2023-03-14T16:36:53.336Z,18.11
2023-03-14T16:39:21.273Z,17.99
2023-03-14T16:41:48.295Z,17.84
2023-03-14T16:44:15.651Z,17.76
2023-03-14T16:46:43.151Z,17.61
2023-03-14T16:49:11.001Z,17.37
2023-03-14T16:51:38.016Z,17.06
2023-03-14T16:54:06.173Z,16.93
2023-03-14T16:56:33.138Z,16.73
2023-03-14T16:59:00.495Z,16.69
2023-03-14T17:01:28.232Z,16.51
2023-03-14T17:03:55.633Z,16.32
2023-03-14T17:06:25.694Z,16.26
2023-03-14T17:08:54.675Z,16.11
2023-03-14T17:11:22.348Z,16.00
2023-03-14T17:13:49.439Z,15.84
2023-03-14T17:16:16.564Z,15.71
2023-03-14T17:18:43.751Z,15.59
2023-03-14T17:21:10.787Z,15.40
2023-03-14T17:23:37.957Z,15.30
2023-03-14T17:26:05.189Z,15.27
2023-03-14T17:28:32.360Z,15.07
2023-03-14T17:31:07.964Z,15.02
2023-03-14T17:33:35.845Z,15.02
2023-03-14T17:36:03.633Z,14.98
2023-03-14T17:38:31.188Z,14.88
2023-03-14T17:40:58.470Z,14.79
2023-03-14T17:43:25.584Z,14.85
2023-03-14T17:46:15.106Z,14.77
2023-03-14T17:48:43.794Z,14.64
2023-03-14T17:51:11.361Z,14.55
2023-03-14T17:53:39.258Z,14.39
2023-03-14T17:56:07.666Z,14.38
2023-03-14T17:58:36.857Z,14.43
2023-03-14T18:01:12.070Z,14.30
2023-03-14T18:03:39.508Z,14.28
2023-03-14T18:06:11.283Z,14.22
2023-03-14T18:08:42.843Z,14.15
2023-03-14T18:11:13.376Z,14.16
2023-03-14T18:13:41.855Z,14.07
2023-03-14T18:16:14.302Z,13.93
2023-03-14T18:18:44.031Z,13.89
2023-03-14T18:21:13.450Z,13.85
2023-03-14T18:23:40.501Z,13.75
2023-03-14T18:26:08.402Z,13.68
2023-03-14T18:28:35.940Z,13.50
2023-03-14T18:31:13.578Z,13.50
2023-03-14T18:33:45.603Z,13.49
2023-03-14T18:36:13.149Z,13.37
2023-03-14T18:38:43.841Z,13.40
2023-03-14T18:41:15.990Z,13.33
2023-03-14T18:43:44.119Z,13.30
2023-03-14T18:46:12.435Z,13.31
2023-03-14T18:48:42.740Z,13.22
2023-03-14T18:51:18.669Z,13.18
2023-03-14T18:53:46.568Z,13.14
2023-03-14T18:56:14.732Z,13.16
2023-03-14T18:58:42.367Z,13.13
2023-03-14T19:01:10.661Z,13.03
2023-03-14T19:03:38.653Z,13.05
2023-03-14T19:06:07.925Z,13.01
2023-03-14T19:08:36.773Z,12.89
2023-03-14T19:11:07.028Z,12.87
2023-03-14T19:13:35.242Z,12.88
2023-03-14T19:16:03.051Z,12.76
2023-03-14T19:18:30.818Z,12.77
2023-03-14T19:21:07.034Z,12.77
2023-03-14T19:23:36.691Z,12.77
2023-03-14T19:26:04.297Z,12.75
2023-03-14T19:28:34.795Z,12.68
2023-03-14T19:31:04.022Z,12.63
2023-03-14T19:33:32.414Z,12.57
2023-03-14T19:35:59.519Z,12.59
2023-03-14T19:38:26.674Z,12.60
2023-03-14T19:40:58.118Z,12.55
2023-03-14T19:43:26.084Z,12.55
2023-03-14T19:45:54.453Z,12.51
2023-03-14T19:48:21.836Z,12.44
2023-03-14T19:50:48.844Z,12.47
2023-03-14T19:53:15.865Z,12.40
2023-03-14T19:55:47.015Z,12.40
2023-03-14T19:58:16.144Z,12.37
2023-03-14T20:00:46.116Z,12.26
2023-03-14T20:03:14.147Z,12.31
2023-03-14T20:05:45.062Z,12.27
2023-03-14T20:08:12.491Z,12.23
2023-03-14T20:10:40.190Z,12.19
2023-03-14T20:13:19.229Z,12.18
2023-03-14T20:15:46.852Z,12.12
2023-03-14T20:18:13.972Z,12.14
2023-03-14T20:20:44.282Z,12.13
2023-03-14T20:23:11.702Z,12.10
2023-03-14T20:25:40.045Z,12.03
2023-03-14T20:28:07.540Z,12.08
2023-03-14T20:30:35.375Z,12.05
2023-03-14T20:33:05.305Z,12.01
2023-03-14T20:35:32.972Z,11.96
2023-03-14T20:38:00.001Z,12.02
2023-03-14T20:40:30.336Z,11.94
2023-03-14T20:42:57.407Z,11.94
2023-03-14T20:45:24.428Z,11.81
2023-03-14T20:47:51.466Z,11.75
2023-03-14T20:50:19.037Z,11.75
2023-03-14T20:52:46.387Z,11.74
2023-03-14T20:55:13.478Z,11.75
2023-03-14T20:57:41.280Z,11.63
2023-03-14T21:00:10.384Z,11.47
2023-03-14T21:02:37.410Z,11.54
2023-03-14T21:05:05.190Z,11.58
2023-03-14T21:07:41.686Z,11.56
2023-03-14T21:10:11.414Z,11.54
2023-03-14T21:12:38.820Z,11.49
2023-03-14T21:15:07.579Z,11.53
2023-03-14T21:17:34.767Z,11.45
2023-03-14T21:20:01.906Z,11.38
2023-03-14T21:22:29.746Z,11.34
2023-03-14T21:24:57.033Z,11.28
2023-03-14T21:27:24.163Z,11.34
2023-03-14T21:29:51.208Z,11.21
2023-03-14T21:32:18.378Z,11.21
2023-03-14T21:34:48.901Z,11.14
2023-03-14T21:37:16.828Z,11.09
2023-03-14T21:39:43.895Z,11.10
2023-03-14T21:42:10.914Z,11.05
2023-03-14T21:44:37.988Z,11.03
2023-03-14T21:47:06.967Z,10.99
2023-03-14T21:49:38.411Z,11.07
2023-03-14T21:52:11.256Z,10.91
2023-03-14T21:54:38.472Z,10.97
2023-03-14T21:57:07.578Z,11.08
2023-03-14T21:59:36.260Z,10.89
2023-03-14T22:02:06.065Z,10.90
2023-03-14T22:04:37.051Z,10.93
2023-03-14T22:07:07.039Z,10.89
2023-03-14T22:09:35.184Z,10.83
2023-03-14T22:12:02.382Z,10.78
2023-03-14T22:14:29.519Z,10.72
2023-03-14T22:16:57.003Z,10.66
2023-03-14T22:19:24.019Z,10.75
2023-03-14T22:21:51.014Z,10.84
2023-03-14T22:24:18.140Z,10.90
2023-03-14T22:26:45.143Z,10.94
2023-03-14T22:29:12.258Z,10.94
2023-03-14T22:31:39.359Z,10.98
2023-03-14T22:34:06.458Z,10.89
2023-03-14T22:36:33.554Z,10.94
2023-03-14T22:39:00.689Z,11.04
2023-03-14T22:41:27.952Z,11.05
2023-03-14T22:43:55.793Z,11.07
2023-03-14T22:46:22.785Z,10.90
2023-03-14T22:48:49.779Z,10.88
2023-03-14T22:51:19.369Z,10.89
2023-03-14T22:53:46.580Z,10.76
2023-03-14T22:56:13.628Z,10.87
2023-03-14T22:58:40.742Z,10.82
2023-03-14T23:01:07.857Z,10.77
2023-03-14T23:03:35.110Z,10.75
2023-03-14T23:06:03.459Z,10.74
2023-03-14T23:08:33.426Z,10.69
2023-03-14T23:11:04.744Z,10.65
2023-03-14T23:13:32.458Z,10.67
2023-03-14T23:15:59.794Z,10.72
2023-03-14T23:18:27.827Z,10.77
2023-03-14T23:21:31.164Z,10.77
2023-03-14T23:23:58.227Z,10.55
2023-03-14T23:26:27.441Z,10.62
2023-03-14T23:28:54.977Z,10.59
2023-03-14T23:31:22.153Z,10.61
2023-03-14T23:33:50.804Z,10.60
2023-03-14T23:36:22.402Z,10.55
2023-03-14T23:38:49.513Z,10.51
2023-03-14T23:41:16.694Z,10.54
2023-03-14T23:43:47.371Z,10.48
2023-03-14T23:46:15.660Z,10.47
2023-03-14T23:48:47.423Z,10.43
2023-03-14T23:51:15.887Z,10.38
2023-03-14T23:53:43.582Z,10.22
2023-03-14T23:56:13.065Z,10.18
2023-03-14T23:58:41.103Z,10.16
